Novice, Texas
Current Conditions -  °F | °C
As of 9:55 AM on Friday 24 Oct 2014 (Local Time) from KCOM Reporting Station
Clear Clear  
Wind Chill: 68°   Ceiling: Unl
Heat Index: 68°   Visibility: 10mi
Dew Point: 62°   Wind: 5mph
Humidity: 81%   Direction: 190°S
Pressure: 30.19"   Gusts: NA
Location:  31.99°N, 99.62°W
Report Text: KCOM 241455Z AUTO 19004KT 10SM CLR 20/17 A3019 RMK AO2 T02010167
Loading
Personal Weather Stations






























Interactive Weather Map
Tropical Storm Tracking
New forecast layout! Learn more

10-Day Weather Forecast

Advertisements
Track Severe Weather on mobile